createdAt,value
2018-07-21T00:02:22.435Z,18.00
2018-07-21T00:04:51.511Z,17.90
2018-07-21T00:07:20.583Z,17.80
2018-07-21T00:09:49.714Z,17.80
2018-07-21T00:12:18.816Z,17.80
2018-07-21T00:14:47.863Z,17.70
2018-07-21T00:17:16.926Z,17.60
2018-07-21T00:19:45.962Z,17.60
2018-07-21T00:22:15.027Z,17.50
2018-07-21T00:27:12.760Z,17.50
2018-07-21T00:29:41.847Z,17.50
2018-07-21T00:32:10.944Z,17.40
2018-07-21T00:34:39.988Z,17.40
2018-07-21T00:37:09.031Z,17.40
2018-07-21T00:39:38.099Z,17.50
2018-07-21T00:42:07.144Z,17.60
2018-07-21T00:44:36.206Z,17.60
2018-07-21T00:47:05.255Z,17.60
2018-07-21T00:49:34.318Z,17.60
2018-07-21T00:52:03.360Z,17.60
2018-07-21T00:59:29.787Z,17.50
2018-07-21T01:01:58.832Z,17.40
2018-07-21T01:09:25.266Z,17.30
2018-07-21T01:11:54.343Z,17.20
2018-07-21T01:14:23.427Z,17.20
2018-07-21T01:16:52.487Z,17.20
2018-07-21T01:24:18.931Z,16.90
2018-07-21T01:26:47.995Z,16.80
2018-07-21T01:29:17.080Z,16.80
2018-07-21T01:31:46.136Z,16.70
2018-07-21T01:34:15.211Z,16.60
2018-07-21T01:36:44.284Z,16.50
2018-07-21T01:39:13.373Z,16.40
2018-07-21T01:41:42.431Z,16.30
2018-07-21T01:46:40.192Z,16.10
2018-07-21T01:49:09.280Z,16.00
2018-07-21T01:51:38.343Z,16.00
2018-07-21T01:54:07.430Z,16.00
2018-07-21T01:56:36.494Z,16.00
2018-07-21T02:01:35.603Z,15.90
2018-07-21T02:09:02.079Z,16.00
2018-07-21T02:16:28.532Z,15.90
2018-07-21T02:18:57.584Z,16.00
2018-07-21T02:21:26.664Z,15.90
2018-07-21T02:23:55.719Z,16.00
2018-07-21T02:26:24.788Z,16.00
2018-07-21T02:28:53.832Z,16.00
2018-07-21T02:38:48.940Z,16.00
2018-07-21T02:41:18.051Z,16.00
2018-07-21T02:43:47.105Z,16.00
2018-07-21T02:46:16.168Z,15.90
2018-07-21T02:51:13.913Z,15.80
2018-07-21T02:53:42.967Z,15.70
2018-07-21T02:56:12.041Z,15.70
2018-07-21T03:03:38.532Z,15.60
2018-07-21T03:06:07.595Z,15.60
2018-07-21T03:08:36.657Z,15.60
2018-07-21T03:11:05.748Z,15.70
2018-07-21T03:13:34.814Z,15.70
2018-07-21T03:16:03.920Z,15.70
2018-07-21T03:18:33.101Z,15.80
2018-07-21T03:23:30.980Z,15.80
2018-07-21T03:28:28.752Z,15.80
2018-07-21T03:30:57.846Z,15.90
2018-07-21T03:33:26.916Z,16.00
2018-07-21T03:35:56.008Z,16.00
2018-07-21T03:38:25.063Z,16.00
2018-07-21T03:40:54.124Z,16.00
2018-07-21T03:43:23.198Z,16.00
2018-07-21T03:45:52.272Z,16.00
2018-07-21T03:48:21.342Z,16.00
2018-07-21T03:50:50.407Z,16.00
2018-07-21T03:53:19.496Z,16.00
2018-07-21T03:55:48.555Z,16.10
2018-07-21T03:58:17.630Z,16.10
2018-07-21T04:00:46.690Z,16.20
2018-07-21T04:03:15.767Z,16.10
2018-07-21T04:05:44.819Z,16.20
2018-07-21T04:08:13.905Z,16.20
2018-07-21T04:13:11.684Z,16.20
2018-07-21T04:15:40.795Z,16.30
2018-07-21T04:18:09.877Z,16.30
2018-07-21T04:23:07.641Z,16.50
2018-07-21T04:25:36.700Z,16.50
2018-07-21T04:28:05.803Z,16.60
2018-07-21T04:30:34.868Z,16.70
2018-07-21T04:33:03.944Z,16.80
2018-07-21T04:38:01.688Z,16.90
2018-07-21T04:40:30.756Z,17.00
2018-07-21T04:42:59.831Z,17.10
2018-07-21T04:50:26.275Z,17.30
2018-07-21T04:52:55.351Z,17.30
2018-07-21T04:55:24.420Z,17.40
2018-07-21T04:57:53.631Z,17.50
2018-07-21T05:00:22.688Z,17.60
2018-07-21T05:05:20.452Z,17.70
2018-07-21T05:07:49.532Z,17.80
2018-07-21T05:10:18.596Z,17.90
2018-07-21T05:12:47.686Z,18.00
2018-07-21T05:15:16.756Z,18.10
2018-07-21T05:17:45.887Z,18.20
2018-07-21T05:20:14.961Z,18.30
2018-07-21T05:22:44.009Z,18.40
2018-07-21T05:25:13.079Z,18.60
2018-07-21T05:27:42.137Z,18.70
2018-07-21T05:30:11.493Z,18.80
2018-07-21T05:32:40.536Z,18.90
2018-07-21T05:35:09.620Z,19.00
2018-07-21T05:45:05.542Z,19.50
2018-07-21T05:47:34.641Z,19.70
2018-07-21T05:50:03.835Z,19.80
2018-07-21T05:52:32.876Z,19.90
2018-07-21T05:55:01.943Z,20.10
2018-07-21T05:57:31.006Z,20.20
2018-07-21T06:00:00.072Z,20.40
2018-07-21T06:04:57.808Z,20.70
2018-07-21T06:07:26.847Z,20.80
2018-07-21T06:09:55.915Z,20.90
2018-07-21T06:12:24.985Z,21.00
2018-07-21T06:14:54.040Z,21.10
2018-07-21T06:17:23.079Z,21.30
2018-07-21T06:19:52.135Z,21.40
2018-07-21T06:22:21.171Z,21.50
2018-07-21T06:24:50.229Z,21.60
2018-07-21T06:32:16.669Z,22.10
2018-07-21T06:34:45.730Z,22.30
2018-07-21T06:37:14.775Z,22.50
2018-07-21T06:39:43.831Z,22.60
2018-07-21T06:42:12.867Z,22.80
2018-07-21T06:47:10.585Z,23.20
2018-07-21T06:49:39.713Z,23.40
2018-07-21T06:52:08.875Z,23.50
2018-07-21T06:54:37.948Z,23.60
2018-07-21T06:59:35.700Z,23.80
2018-07-21T07:02:04.769Z,23.80
2018-07-21T07:04:33.827Z,24.00
2018-07-21T07:07:02.916Z,24.00
2018-07-21T07:09:31.973Z,24.20
2018-07-21T07:12:01.072Z,24.40
2018-07-21T07:14:30.127Z,24.40
2018-07-21T07:16:59.901Z,24.60
2018-07-21T07:19:28.972Z,24.70
2018-07-21T07:21:58.039Z,24.80
2018-07-21T07:24:27.087Z,24.90
2018-07-21T07:26:56.164Z,25.00
2018-07-21T07:29:25.225Z,25.10
2018-07-21T07:31:54.292Z,25.10
2018-07-21T07:36:52.036Z,25.50
2018-07-21T07:39:21.104Z,25.80
2018-07-21T07:41:50.175Z,26.00
2018-07-21T07:46:47.984Z,26.30
2018-07-21T07:49:17.050Z,26.50
2018-07-21T07:51:46.194Z,26.70
2018-07-21T07:54:15.248Z,26.90
2018-07-21T07:56:44.331Z,27.00
2018-07-21T08:01:42.272Z,27.10
2018-07-21T08:04:11.327Z,27.10
2018-07-21T08:06:40.400Z,27.20
2018-07-21T08:09:11.492Z,27.40
2018-07-21T08:11:41.016Z,27.50
2018-07-21T08:14:10.090Z,27.80
2018-07-21T08:16:39.136Z,28.10
2018-07-21T08:19:08.899Z,28.30
2018-07-21T08:21:37.955Z,28.50
2018-07-21T08:24:07.391Z,28.70
2018-07-21T08:26:36.447Z,29.10
2018-07-21T08:29:05.566Z,29.20
2018-07-21T08:31:34.604Z,29.30
2018-07-21T08:34:03.677Z,29.40
2018-07-21T08:36:32.727Z,29.70
2018-07-21T08:39:01.800Z,29.90
2018-07-21T08:41:30.864Z,30.00
2018-07-21T08:43:59.944Z,30.30
2018-07-21T08:46:29.008Z,30.40
2018-07-21T08:48:58.092Z,30.50
2018-07-21T08:51:27.147Z,30.70
2018-07-21T08:53:56.220Z,30.90
2018-07-21T08:58:53.967Z,31.00
2018-07-21T09:01:23.028Z,31.40
2018-07-21T09:03:52.107Z,31.50
2018-07-21T09:06:21.159Z,31.70
2018-07-21T09:08:50.254Z,31.70
2018-07-21T09:11:19.339Z,31.60
2018-07-21T09:13:48.416Z,31.80
2018-07-21T09:16:17.460Z,32.20
2018-07-21T09:18:46.719Z,32.50
2018-07-21T09:21:15.768Z,32.80
2018-07-21T09:28:42.196Z,32.70
2018-07-21T09:31:11.240Z,33.00
2018-07-21T09:36:08.967Z,33.00
2018-07-21T09:38:38.123Z,32.80
2018-07-21T09:48:33.600Z,32.30
2018-07-21T09:51:02.649Z,32.40
2018-07-21T09:53:31.736Z,32.30
2018-07-21T09:56:00.855Z,32.60
2018-07-21T09:58:29.855Z,32.80
2018-07-21T10:03:31.362Z,33.00
2018-07-21T10:06:00.423Z,33.20
2018-07-21T10:13:27.040Z,33.60
2018-07-21T10:15:56.108Z,33.40
2018-07-21T10:18:25.166Z,33.50
2018-07-21T10:20:54.219Z,33.50
2018-07-21T10:23:23.277Z,33.60
2018-07-21T10:25:57.774Z,33.70
2018-07-21T10:28:32.040Z,33.70
2018-07-21T10:31:01.103Z,33.60
2018-07-21T10:33:30.182Z,33.60
2018-07-21T10:35:59.275Z,33.60
2018-07-21T10:38:28.292Z,33.50
2018-07-21T10:40:57.361Z,33.50
2018-07-21T10:43:26.408Z,33.30
2018-07-21T10:45:55.501Z,33.30
2018-07-21T10:50:53.351Z,33.20
2018-07-21T10:53:22.348Z,33.20
2018-07-21T10:55:51.412Z,33.30
2018-07-21T10:58:20.463Z,33.20
2018-07-21T11:05:46.877Z,33.50
2018-07-21T11:08:15.911Z,33.40
2018-07-21T11:10:44.971Z,33.30
2018-07-21T11:13:14.031Z,33.50
2018-07-21T11:15:43.088Z,33.60
2018-07-21T11:18:12.136Z,33.50
2018-07-21T11:20:41.191Z,33.50
2018-07-21T11:23:10.231Z,33.50
2018-07-21T11:25:39.291Z,33.70
2018-07-21T11:28:08.329Z,33.70
2018-07-21T11:30:37.382Z,33.60
2018-07-21T11:33:06.737Z,33.50
2018-07-21T11:35:35.929Z,33.50
2018-07-21T11:38:04.966Z,33.50
2018-07-21T11:40:34.035Z,33.60
2018-07-21T11:43:03.081Z,33.70
2018-07-21T11:48:00.844Z,33.70
2018-07-21T11:50:30.006Z,33.90
2018-07-21T11:52:59.063Z,34.10
2018-07-21T11:57:56.804Z,34.30
2018-07-21T12:00:26.679Z,34.50
2018-07-21T12:02:55.748Z,34.60
2018-07-21T12:07:53.500Z,34.60
2018-07-21T12:10:22.588Z,34.60
2018-07-21T12:12:51.672Z,34.60
2018-07-21T12:15:20.724Z,34.60
2018-07-21T12:20:18.477Z,34.90
2018-07-21T12:22:47.551Z,34.90
2018-07-21T12:25:16.603Z,34.90
2018-07-21T12:27:45.671Z,35.10
2018-07-21T12:30:14.724Z,35.20
2018-07-21T12:32:43.809Z,35.50
2018-07-21T12:35:12.869Z,35.50
2018-07-21T12:37:41.935Z,34.80
2018-07-21T12:40:11.047Z,33.60
2018-07-21T12:42:40.087Z,32.90
2018-07-21T12:45:09.152Z,32.30
2018-07-21T12:47:38.264Z,31.90
2018-07-21T12:55:04.944Z,32.30
2018-07-21T13:00:02.699Z,32.60
2018-07-21T13:02:31.777Z,32.00
2018-07-21T13:05:00.840Z,31.60
2018-07-21T13:07:29.915Z,31.40
2018-07-21T13:09:58.967Z,31.20
2018-07-21T13:12:28.028Z,30.90
2018-07-21T13:14:57.088Z,30.80
2018-07-21T13:19:54.883Z,30.60
2018-07-21T13:22:23.904Z,30.30
2018-07-21T13:24:52.968Z,30.20
2018-07-21T13:29:50.705Z,29.70
2018-07-21T13:32:19.748Z,29.70
2018-07-21T13:34:48.810Z,29.60
2018-07-21T13:37:17.857Z,29.60
2018-07-21T13:39:46.923Z,29.40
2018-07-21T13:42:15.969Z,29.40
2018-07-21T13:44:45.023Z,29.60
2018-07-21T13:47:14.076Z,29.40
2018-07-21T13:52:11.803Z,29.30
2018-07-21T13:57:09.548Z,28.90
2018-07-21T13:59:38.619Z,28.90
2018-07-21T14:02:07.726Z,29.00
2018-07-21T14:04:36.755Z,28.80
2018-07-21T14:07:05.800Z,28.70
2018-07-21T14:09:34.855Z,28.80
2018-07-21T14:19:29.960Z,27.90
2018-07-21T14:21:59.039Z,27.80
2018-07-21T14:24:28.096Z,27.60
2018-07-21T14:26:57.159Z,27.30
2018-07-21T14:29:26.228Z,27.00
2018-07-21T14:31:55.317Z,26.90
2018-07-21T14:34:24.370Z,26.70
2018-07-21T14:36:53.456Z,26.60
2018-07-21T14:39:22.508Z,26.40
2018-07-21T14:41:51.654Z,26.20
2018-07-21T14:46:49.336Z,26.30
2018-07-21T14:49:18.387Z,26.30
2018-07-21T14:51:47.455Z,26.40
2018-07-21T14:56:45.201Z,26.10
2018-07-21T14:59:14.243Z,26.10
2018-07-21T15:01:43.317Z,25.90
2018-07-21T15:04:12.504Z,25.80
2018-07-21T15:06:41.570Z,25.60
2018-07-21T15:09:11.660Z,25.60
2018-07-21T15:14:09.464Z,25.50
2018-07-21T15:16:38.573Z,25.40
2018-07-21T15:19:07.588Z,25.30
2018-07-21T15:21:36.643Z,25.30
2018-07-21T15:24:05.878Z,25.30
2018-07-21T15:26:34.940Z,25.30
2018-07-21T15:29:03.979Z,25.30
2018-07-21T15:31:33.035Z,25.20
2018-07-21T15:34:02.071Z,25.20
2018-07-21T15:36:31.140Z,25.10
2018-07-21T15:39:00.200Z,25.10
2018-07-21T15:43:58.576Z,25.30
2018-07-21T15:46:27.644Z,25.30
2018-07-21T15:48:56.684Z,25.20
2018-07-21T15:58:51.784Z,24.90
2018-07-21T16:01:20.865Z,24.70
2018-07-21T16:03:50.081Z,24.60
2018-07-21T16:06:19.133Z,24.50
2018-07-21T16:11:16.931Z,24.30
2018-07-21T16:13:45.976Z,24.20
2018-07-21T16:16:15.009Z,24.20
2018-07-21T16:18:44.073Z,24.20
2018-07-21T16:21:13.116Z,24.10
2018-07-21T16:23:42.172Z,24.00
2018-07-21T16:26:11.216Z,23.80
2018-07-21T16:28:40.278Z,23.70
2018-07-21T16:33:38.013Z,23.60
2018-07-21T16:36:07.047Z,23.50
2018-07-21T16:38:36.155Z,23.50
2018-07-21T16:43:33.880Z,23.30
2018-07-21T16:46:02.920Z,23.40
2018-07-21T16:48:31.984Z,23.40
2018-07-21T16:51:01.046Z,23.40
2018-07-21T16:53:30.103Z,23.40
2018-07-21T16:55:59.183Z,23.30
2018-07-21T16:58:28.240Z,23.20
2018-07-21T17:00:57.284Z,23.20
2018-07-21T17:03:26.364Z,23.20
2018-07-21T17:05:55.417Z,23.10
2018-07-21T17:08:24.528Z,23.10
2018-07-21T17:10:53.572Z,23.10
2018-07-21T17:13:22.650Z,23.00
2018-07-21T17:15:51.704Z,23.00
2018-07-21T17:18:20.767Z,23.00
2018-07-21T17:20:49.808Z,23.00
2018-07-21T17:23:18.903Z,22.90
2018-07-21T17:25:47.952Z,22.90
2018-07-21T17:28:17.023Z,22.90
2018-07-21T17:30:46.085Z,22.80
2018-07-21T17:33:15.159Z,22.80
2018-07-21T17:35:44.303Z,22.70
2018-07-21T17:38:13.327Z,22.70
2018-07-21T17:40:42.409Z,22.70
2018-07-21T17:43:11.464Z,22.60
2018-07-21T17:45:40.534Z,22.60
2018-07-21T17:50:38.332Z,22.50
2018-07-21T17:53:07.392Z,22.50
2018-07-21T17:55:36.466Z,22.40
2018-07-21T17:58:05.557Z,22.40
2018-07-21T18:00:34.631Z,22.30
2018-07-21T18:03:03.676Z,22.30
2018-07-21T18:05:32.814Z,22.30
2018-07-21T18:08:01.841Z,22.20
2018-07-21T18:10:30.913Z,22.20
2018-07-21T18:12:59.976Z,22.20
2018-07-21T18:15:29.027Z,22.10
2018-07-21T18:17:58.089Z,22.10
2018-07-21T18:20:27.156Z,22.00
2018-07-21T18:22:56.201Z,22.00
2018-07-21T18:25:25.309Z,22.00
2018-07-21T18:27:54.350Z,22.00
2018-07-21T18:32:52.124Z,21.80
2018-07-21T18:35:21.195Z,21.80
2018-07-21T18:37:50.263Z,21.80
2018-07-21T18:40:19.326Z,21.80
2018-07-21T18:45:17.119Z,21.70
2018-07-21T18:47:46.180Z,21.70
2018-07-21T18:50:15.232Z,21.60
2018-07-21T18:52:44.327Z,21.60
2018-07-21T18:55:13.388Z,21.60
2018-07-21T19:00:11.132Z,21.60
2018-07-21T19:02:40.201Z,21.60
2018-07-21T19:05:09.288Z,21.50
2018-07-21T19:07:38.359Z,21.50
2018-07-21T19:10:07.421Z,21.50
2018-07-21T19:12:42.204Z,21.50
2018-07-21T19:15:15.424Z,21.40
2018-07-21T19:17:44.491Z,21.30
2018-07-21T19:20:18.924Z,21.30
2018-07-21T19:22:48.012Z,21.30
2018-07-21T19:25:22.259Z,21.20
2018-07-21T19:27:51.324Z,21.20
2018-07-21T19:30:20.381Z,21.10
2018-07-21T19:32:54.988Z,21.00
2018-07-21T19:35:24.032Z,21.00
2018-07-21T19:42:50.544Z,20.80
2018-07-21T19:45:19.584Z,20.80
2018-07-21T19:47:48.744Z,20.70
2018-07-21T19:50:17.724Z,20.70
2018-07-21T19:52:46.821Z,20.60
2018-07-21T19:55:15.865Z,20.50
2018-07-21T19:57:44.927Z,20.50
2018-07-21T20:00:13.976Z,20.50
2018-07-21T20:02:43.039Z,20.40
2018-07-21T20:05:12.084Z,20.30
2018-07-21T20:07:41.151Z,20.20
2018-07-21T20:10:10.208Z,20.10
2018-07-21T20:12:39.309Z,20.00
2018-07-21T20:15:08.363Z,19.90
2018-07-21T20:17:37.535Z,19.80
2018-07-21T20:20:07.732Z,19.70
2018-07-21T20:22:36.820Z,19.60
2018-07-21T20:25:05.912Z,19.60
2018-07-21T20:27:34.983Z,19.60
2018-07-21T20:30:04.612Z,19.50
2018-07-21T20:32:33.667Z,19.40
2018-07-21T20:35:02.750Z,19.30
2018-07-21T20:40:00.510Z,19.10
2018-07-21T20:42:29.579Z,19.20
2018-07-21T20:44:58.699Z,19.10
2018-07-21T20:47:27.763Z,19.00
2018-07-21T20:49:56.839Z,19.00
2018-07-21T20:52:26.163Z,19.00
2018-07-21T20:54:55.250Z,18.90
2018-07-21T20:57:24.320Z,18.80
2018-07-21T21:02:22.077Z,18.80
2018-07-21T21:04:51.156Z,18.80
2018-07-21T21:07:20.210Z,18.80
2018-07-21T21:09:49.296Z,18.80
2018-07-21T21:12:18.432Z,18.70
2018-07-21T21:17:16.152Z,18.70
2018-07-21T21:19:45.219Z,18.70
2018-07-21T21:22:14.503Z,18.80
2018-07-21T21:24:43.661Z,18.90
2018-07-21T21:27:12.719Z,18.90
2018-07-21T21:29:41.792Z,19.00
2018-07-21T21:32:10.847Z,19.00
2018-07-21T21:37:08.620Z,19.10
2018-07-21T21:39:37.698Z,19.10
2018-07-21T21:42:06.796Z,19.10
2018-07-21T21:44:36.143Z,19.20
2018-07-21T21:47:05.220Z,19.20
2018-07-21T21:49:34.293Z,19.20
2018-07-21T21:52:03.361Z,19.30
2018-07-21T21:54:32.454Z,19.30
2018-07-21T21:57:01.517Z,19.30
2018-07-21T22:01:59.291Z,19.40
2018-07-21T22:09:25.747Z,19.40
2018-07-21T22:11:54.841Z,19.40
2018-07-21T22:14:23.964Z,19.40
2018-07-21T22:16:52.991Z,19.40
2018-07-21T22:19:22.043Z,19.40
2018-07-21T22:21:51.125Z,19.40
2018-07-21T22:24:20.171Z,19.40
2018-07-21T22:26:49.235Z,19.40
2018-07-21T22:31:47.000Z,19.30
2018-07-21T22:34:16.064Z,19.30
2018-07-21T22:36:45.153Z,19.40
2018-07-21T22:39:14.224Z,19.40
2018-07-21T22:41:43.308Z,19.40
2018-07-21T22:46:41.120Z,19.30
2018-07-21T22:49:10.184Z,19.30
2018-07-21T22:51:39.269Z,19.30
2018-07-21T22:54:08.340Z,19.40
2018-07-21T22:56:37.420Z,19.30
2018-07-21T22:59:06.771Z,19.40
2018-07-21T23:01:35.857Z,19.30
2018-07-21T23:04:04.915Z,19.40
2018-07-21T23:06:34.068Z,19.40
2018-07-21T23:11:31.900Z,19.40
2018-07-21T23:14:00.952Z,19.40
2018-07-21T23:18:58.764Z,19.30
2018-07-21T23:21:27.858Z,19.50
2018-07-21T23:23:57.040Z,19.50
2018-07-21T23:26:26.263Z,19.40
2018-07-21T23:28:55.336Z,19.30
2018-07-21T23:31:24.383Z,19.30
2018-07-21T23:33:53.449Z,19.40
2018-07-21T23:36:22.500Z,19.30
2018-07-21T23:38:51.560Z,19.30
2018-07-21T23:41:20.632Z,19.30
2018-07-21T23:43:49.700Z,19.40
2018-07-21T23:53:44.813Z,19.30
2018-07-21T23:56:13.883Z,19.30
2018-07-21T23:58:42.943Z,19.40
